CST,Max TemperatureF,Mean TemperatureF,Min TemperatureF,Max Dew PointF,MeanDew PointF,Min DewpointF,Max Humidity, Mean Humidity, Min Humidity, Max Sea Level PressureIn, Mean Sea Level PressureIn, Min Sea Level PressureIn, Max VisibilityMiles, Mean VisibilityMiles, Min VisibilityMiles, Max Wind SpeedMPH, Mean Wind SpeedMPH, Max Gust SpeedMPH,PrecipitationIn, CloudCover, Events, WindDirDegrees
2012-11-1,69,54,39,43,37,25,76,57,37,30.03,29.95,29.88,10,9,2,14,6,18,0.00,1,,265
2012-11-2,59,49,38,40,33,28,79,56,33,30.06,29.99,29.94,10,10,10,18,10,24,0.00,0,,84
2012-11-3,54,46,38,38,36,33,85,70,54,30.21,30.07,29.93,10,10,10,17,9,24,0.00,2,,42
2012-11-4,53,42,30,37,34,28,100,75,50,30.27,30.21,30.13,10,7,0,13,4,15,T,2,Fog,102
2012-11-5,44,43,42,42,40,35,100,85,70,30.10,30.04,30.00,10,5,2,13,8,17,0.12,8,Rain,105
2012-11-6,52,47,42,43,40,35,96,79,61,30.08,30.02,29.94,10,6,2,17,8,22,T,8,Rain,234
2012-11-7,49,43,36,36,34,31,82,69,56,30.18,30.11,29.99,10,10,10,20,9,24,0.00,5,,360
2012-11-8,61,47,32,38,34,30,89,64,39,30.19,30.10,30.01,10,10,10,16,10,21,0.00,0,,149
2012-11-9,73,61,49,55,48,38,78,66,53,30.01,29.93,29.84,10,10,10,21,12,31,0.00,1,,164
2012-11-10,77,68,58,53,49,45,72,53,33,29.91,29.86,29.81,10,10,10,29,18,39,T,0,,176
2012-11-11,68,50,31,57,44,24,100,82,63,30.17,29.91,29.73,10,8,2,32,17,41,0.77,6,Rain,268
2012-11-12,44,35,26,24,21,19,81,61,40,30.45,30.36,30.21,10,10,10,23,10,29,0.00,0,,261
2012-11-13,52,38,23,29,24,20,81,58,35,30.53,30.46,30.40,10,10,10,12,6,15,0.00,0,,155
2012-11-14,56,45,33,29,24,20,64,48,32,30.47,30.40,30.33,10,10,10,10,6,13,0.00,0,,135
2012-11-15,57,45,32,36,27,21,64,49,33,30.38,30.35,30.32,10,10,10,8,4,10,0.00,1,,172
2012-11-16,61,49,36,38,32,29,76,56,36,30.45,30.42,30.38,10,10,5,8,2,10,0.00,0,,93
2012-11-17,61,48,34,32,28,25,70,50,29,30.48,30.41,30.35,10,10,10,13,7,16,0.00,0,,130
2012-11-18,64,51,37,32,28,26,64,46,28,30.36,30.30,30.24,10,10,10,13,8,16,0.00,0,,148
2012-11-19,59,52,44,48,44,33,93,72,50,30.24,30.18,30.11,10,10,7,13,8,17,0.07,6,Rain,168
2012-11-20,62,51,39,47,43,39,100,80,60,30.22,30.14,30.08,10,6,0,14,6,16,0.00,0,Fog,274
2012-11-21,66,48,30,48,40,32,100,72,44,30.27,30.20,30.09,10,4,0,13,7,15,0.00,0,Fog,163
2012-11-22,72,60,47,53,44,35,76,60,44,30.18,30.00,29.89,10,10,10,26,14,37,0.03,2,Rain,196
2012-11-23,47,37,26,34,22,15,82,61,40,30.41,30.33,30.20,10,10,10,30,14,38,0.00,1,,308
2012-11-24,40,30,20,20,17,15,77,59,40,30.39,30.23,29.98,10,10,10,14,7,17,0.00,0,,215
2012-11-25,57,46,34,33,27,21,70,53,35,30.06,29.97,29.91,10,10,10,15,8,20,0.00,0,,333
2012-11-26,42,33,23,27,24,18,81,66,51,30.45,30.26,30.06,10,10,10,22,12,26,0.00,4,,23
2012-11-27,39,28,16,17,15,12,84,61,37,30.50,30.40,30.33,10,10,10,9,5,13,0.00,0,,251
2012-11-28,51,37,22,30,24,17,81,62,42,30.45,30.36,30.25,10,10,10,10,5,15,0.00,0,,196
2012-11-29,63,48,33,38,31,25,82,61,39,30.25,30.13,30.04,10,10,10,18,11,23,0.00,0,,171
2012-11-30,65,52,39,45,39,30,80,64,48,30.10,30.07,30.04,10,10,10,16,8,20,0.00,0,,192